createdAt,value
2018-09-05T00:00:17.594Z,1.5
2018-09-05T00:02:18.379Z,2.5
2018-09-05T00:04:18.150Z,1.9
2018-09-05T00:06:17.635Z,2.5
2018-09-05T00:08:18.436Z,2
2018-09-05T00:10:17.671Z,2.1
2018-09-05T00:12:18.429Z,1.9
2018-09-05T00:14:18.249Z,2.3
2018-09-05T00:16:18.438Z,2.2
2018-09-05T00:18:18.260Z,2.3
2018-09-05T00:20:18.014Z,1.9
2018-09-05T00:22:17.789Z,2.1
2018-09-05T00:24:17.553Z,2
2018-09-05T00:26:18.382Z,1.9
2018-09-05T00:28:18.153Z,2.3
2018-09-05T00:30:17.946Z,2.8
2018-09-05T00:32:17.725Z,2.2
2018-09-05T00:34:18.500Z,2.1
2018-09-05T00:36:17.516Z,2.5
2018-09-05T00:38:18.301Z,2.8
2018-09-05T00:40:17.604Z,2.2
2018-09-05T00:42:17.544Z,2.1
2018-09-05T00:44:18.314Z,1.9
2018-09-05T00:46:17.902Z,2.3
2018-09-05T00:48:17.673Z,2.1
2018-09-05T00:50:18.446Z,1.6
2018-09-05T00:52:18.237Z,2.4
2018-09-05T00:54:18.041Z,2.3
2018-09-05T00:56:17.944Z,1.8
2018-09-05T00:58:17.687Z,2.4
2018-09-05T01:00:18.485Z,2.2
2018-09-05T01:02:18.266Z,2.4
2018-09-05T01:04:19.055Z,2.6
2018-09-05T01:06:18.176Z,1.7
2018-09-05T01:08:17.952Z,2.5
2018-09-05T01:10:18.215Z,2.3
2018-09-05T01:12:17.991Z,2.7
2018-09-05T01:14:17.789Z,2.4
2018-09-05T01:16:17.986Z,2.3
2018-09-05T01:18:17.827Z,2.9
2018-09-05T01:20:17.623Z,2.8
2018-09-05T01:22:18.422Z,2.6
2018-09-05T01:24:18.208Z,1.9
2018-09-05T01:26:18.378Z,2.6
2018-09-05T01:28:18.142Z,2.4
2018-09-05T01:30:17.924Z,3
2018-09-05T01:32:18.651Z,2
2018-09-05T01:34:18.380Z,2.6
2018-09-05T01:36:18.826Z,2.5
2018-09-05T01:38:17.586Z,2.5
2018-09-05T01:40:17.767Z,2.9
2018-09-05T01:42:18.526Z,2.8
2018-09-05T01:44:19.256Z,2.2
2018-09-05T01:46:18.670Z,3
2018-09-05T01:48:18.419Z,2.2
2018-09-05T01:50:18.217Z,2.9
2018-09-05T01:52:17.960Z,2.1
2018-09-05T01:54:17.725Z,3.3
2018-09-05T01:56:18.190Z,2
2018-09-05T01:58:18.912Z,2.7
2018-09-05T02:00:18.664Z,3
2018-09-05T02:02:18.402Z,2.7
2018-09-05T02:04:19.127Z,3.2
2018-09-05T02:06:18.613Z,2.4
2018-09-05T02:08:19.351Z,2.8
2018-09-05T02:10:18.632Z,2.9
2018-09-05T02:12:18.354Z,3.2
2018-09-05T02:14:19.096Z,2.3
2018-09-05T02:16:18.284Z,3
2018-09-05T02:18:18.069Z,3
2018-09-05T02:20:18.825Z,2.9
2018-09-05T02:22:17.578Z,2.8
2018-09-05T02:24:19.299Z,3
2018-09-05T02:26:18.289Z,2.6
2018-09-05T02:28:19.022Z,4.1
2018-09-05T02:30:18.765Z,2.9
2018-09-05T02:32:17.520Z,3.5
2018-09-05T02:34:19.237Z,3.1
2018-09-05T02:36:18.665Z,4
2018-09-05T02:38:18.411Z,4.3
2018-09-05T02:40:18.668Z,4.9
2018-09-05T02:42:17.533Z,4.9
2018-09-05T02:44:19.274Z,5.8
2018-09-05T02:46:18.236Z,5.4
2018-09-05T02:48:17.994Z,6
2018-09-05T02:50:17.787Z,5.9
2018-09-05T02:52:18.506Z,6.5
2018-09-05T02:54:18.273Z,7
2018-09-05T02:56:19.293Z,6.4
2018-09-05T02:58:18.025Z,6.5
2018-09-05T03:00:17.784Z,6.7
2018-09-05T03:02:18.508Z,8.1
2018-09-05T03:04:19.249Z,7.4
2018-09-05T03:06:18.227Z,7.2
2018-09-05T03:08:18.950Z,7
2018-09-05T03:10:19.185Z,8.2
2018-09-05T03:12:17.950Z,8.7
2018-09-05T03:14:18.689Z,8.4
2018-09-05T03:16:19.387Z,7.8
2018-09-05T03:18:19.177Z,7.8
2018-09-05T03:20:18.961Z,7.7
2018-09-05T03:22:17.683Z,7.5
2018-09-05T03:24:18.401Z,9.6
2018-09-05T03:26:18.823Z,8.6
2018-09-05T03:28:18.572Z,9.2
2018-09-05T03:30:18.317Z,9.1
2018-09-05T03:32:18.211Z,9
2018-09-05T03:34:18.093Z,9.6
2018-09-05T03:36:19.113Z,9.8
2018-09-05T03:38:18.849Z,10.5
2018-09-05T03:40:18.096Z,10.3
2018-09-05T03:42:18.860Z,10
2018-09-05T03:44:18.616Z,10.6
2018-09-05T03:46:17.613Z,10.4
2018-09-05T03:48:18.368Z,9.6
2018-09-05T03:50:18.110Z,10.1
2018-09-05T03:52:18.824Z,10.6
2018-09-05T03:54:18.540Z,10.4
2018-09-05T03:56:19.444Z,11.4
2018-09-05T03:58:19.158Z,11.1
2018-09-05T04:00:18.898Z,8.9
2018-09-05T04:02:18.609Z,10.4
2018-09-05T04:04:18.316Z,9.8
2018-09-05T04:06:19.457Z,9.8
2018-09-05T04:08:19.162Z,11.8
2018-09-05T04:10:19.341Z,9.2
2018-09-05T04:12:19.040Z,9.8
2018-09-05T04:14:18.743Z,9.6
2018-09-05T04:16:19.110Z,11.2
2018-09-05T04:18:18.868Z,11.2
2018-09-05T04:20:18.583Z,9.9
2018-09-05T04:22:19.301Z,10.9
2018-09-05T04:24:18.996Z,9.8
2018-09-05T04:26:18.425Z,10.9
2018-09-05T04:28:19.145Z,10.1
2018-09-05T04:30:18.939Z,10.2
2018-09-05T04:32:18.695Z,11
2018-09-05T04:34:19.414Z,10.5
2018-09-05T04:36:18.837Z,9.6
2018-09-05T04:38:18.529Z,9.3
2018-09-05T04:40:18.664Z,9.9
2018-09-05T04:42:19.353Z,11.2
2018-09-05T04:44:19.046Z,10
2018-09-05T04:46:19.023Z,11.4
2018-09-05T04:48:18.752Z,9.7
2018-09-05T04:50:19.479Z,10.1
2018-09-05T04:52:19.206Z,10.6
2018-09-05T04:54:18.910Z,9.6
2018-09-05T04:56:18.774Z,9.4
2018-09-05T04:58:18.495Z,10.5
2018-09-05T05:00:18.377Z,10.3
2018-09-05T05:02:18.089Z,10.4
2018-09-05T05:04:18.819Z,11.5
2018-09-05T05:06:19.166Z,11.5
2018-09-05T05:08:18.901Z,10.8
2018-09-05T05:10:19.031Z,11.7
2018-09-05T05:12:17.732Z,10.9
2018-09-05T05:14:19.432Z,11
2018-09-05T05:16:19.327Z,11.8
2018-09-05T05:18:19.083Z,11.8
2018-09-05T05:20:18.837Z,11.2
2018-09-05T05:22:18.533Z,10.9
2018-09-05T05:24:19.235Z,12.2
2018-09-05T05:26:18.108Z,12.8
2018-09-05T05:28:18.816Z,14
2018-09-05T05:30:18.557Z,12.7
2018-09-05T05:32:19.338Z,11.9
2018-09-05T05:34:19.065Z,12.1
2018-09-05T05:36:19.116Z,13
2018-09-05T05:38:17.822Z,12.5
2018-09-05T05:40:19.076Z,12.9
2018-09-05T05:42:18.917Z,12.8
2018-09-05T05:44:18.612Z,14.2
2018-09-05T05:46:18.499Z,14.5
2018-09-05T05:48:19.202Z,12.4
2018-09-05T05:50:18.967Z,15
2018-09-05T05:52:18.689Z,13
2018-09-05T05:54:19.378Z,12
2018-09-05T05:56:19.153Z,14.4
2018-09-05T05:58:17.883Z,13.7
2018-09-05T06:00:18.618Z,13.3
2018-09-05T06:02:19.322Z,13.2
2018-09-05T06:04:19.048Z,14.2
2018-09-05T06:06:19.032Z,12.8
2018-09-05T06:08:19.121Z,13.4
2018-09-05T06:10:18.248Z,14.3
2018-09-05T06:12:18.959Z,13.2
2018-09-05T06:14:17.682Z,14
2018-09-05T06:16:18.540Z,14.5
2018-09-05T06:18:19.297Z,13.4
2018-09-05T06:20:19.039Z,13.3
2018-09-05T06:22:18.823Z,14.4
2018-09-05T06:24:18.526Z,13.7
2018-09-05T06:26:19.428Z,13.7
2018-09-05T06:28:19.130Z,14.2
2018-09-05T06:30:18.881Z,12.8
2018-09-05T06:32:18.661Z,13.4
2018-09-05T06:34:19.490Z,13.3
2018-09-05T06:36:19.091Z,13.4
2018-09-05T06:38:18.829Z,13.1
2018-09-05T06:40:18.983Z,12.5
2018-09-05T06:42:18.713Z,13.1
2018-09-05T06:44:18.416Z,13.2
2018-09-05T06:46:18.537Z,11.8
2018-09-05T06:48:19.252Z,13.3
2018-09-05T06:50:17.989Z,12.7
2018-09-05T06:52:17.689Z,13.7
2018-09-05T06:54:19.429Z,11.7
2018-09-05T06:56:18.782Z,13
2018-09-05T06:58:17.547Z,14.9
2018-09-05T07:00:19.431Z,13.8
2018-09-05T07:02:19.147Z,13.8
2018-09-05T07:04:18.849Z,14.6
2018-09-05T07:06:18.733Z,15.1
2018-09-05T07:08:19.436Z,13.9
2018-09-05T07:10:18.619Z,14.7
2018-09-05T07:12:18.320Z,14.5
2018-09-05T07:14:19.164Z,13.5
2018-09-05T07:16:18.797Z,14.2
2018-09-05T07:18:18.571Z,13.5
2018-09-05T07:20:19.359Z,14.4
2018-09-05T07:22:18.820Z,12.7
2018-09-05T07:24:18.537Z,12.2
2018-09-05T07:26:19.168Z,11.7
2018-09-05T07:28:18.915Z,11.5
2018-09-05T07:30:17.665Z,12
2018-09-05T07:32:18.479Z,10.8
2018-09-05T07:34:19.201Z,9.9
2018-09-05T07:36:19.104Z,10.2
2018-09-05T07:38:18.807Z,9.5
2018-09-05T07:40:18.993Z,8.8
2018-09-05T07:42:18.698Z,9.1
2018-09-05T07:44:19.409Z,10.5
2018-09-05T07:46:18.310Z,10
2018-09-05T07:48:19.018Z,9.9
2018-09-05T07:50:17.751Z,8.6
2018-09-05T07:52:19.449Z,9.1
2018-09-05T07:54:18.143Z,8.2
2018-09-05T07:56:18.534Z,8.4
2018-09-05T07:58:19.240Z,8
2018-09-05T08:00:17.987Z,7.4
2018-09-05T08:02:18.723Z,8
2018-09-05T08:04:18.429Z,7.8
2018-09-05T08:06:18.764Z,7.4
2018-09-05T08:08:18.503Z,7.7
2018-09-05T08:10:18.653Z,7.7
2018-09-05T08:12:18.396Z,8.5
2018-09-05T08:14:18.112Z,8.1
2018-09-05T08:16:18.091Z,8.4
2018-09-05T08:18:17.863Z,8.4
2018-09-05T08:20:17.599Z,8.6
2018-09-05T08:22:19.303Z,9.3
2018-09-05T08:24:18.083Z,8.5
2018-09-05T08:26:18.826Z,7.6
2018-09-05T08:28:17.569Z,7.9
2018-09-05T08:30:19.333Z,7.2
2018-09-05T08:32:18.041Z,7.8
2018-09-05T08:34:17.752Z,6.7
2018-09-05T08:36:18.258Z,7.8
2018-09-05T08:38:18.850Z,6.8
2018-09-05T08:40:18.221Z,7.1
2018-09-05T08:42:18.036Z,6.7
2018-09-05T08:44:18.192Z,6.6
2018-09-05T08:46:18.414Z,6.8
2018-09-05T08:48:18.514Z,5.2
2018-09-05T08:50:18.578Z,6.3
2018-09-05T08:52:18.321Z,6.3
2018-09-05T08:54:18.060Z,6.2
2018-09-05T08:56:17.890Z,5.5
2018-09-05T08:58:17.878Z,6.2
2018-09-05T09:00:17.611Z,6.5
2018-09-05T09:02:18.323Z,5.9
2018-09-05T09:04:18.070Z,5.7
2018-09-05T09:06:17.873Z,5.6
2018-09-05T09:08:17.580Z,5.9
2018-09-05T09:10:17.735Z,5.3
2018-09-05T09:12:18.449Z,5.4
2018-09-05T09:14:18.161Z,5.3
2018-09-05T09:16:17.545Z,5.3
2018-09-05T09:18:18.319Z,4.8
2018-09-05T09:20:18.074Z,5.8
2018-09-05T09:22:17.780Z,5.2
2018-09-05T09:24:17.495Z,4.5
2018-09-05T09:26:17.834Z,5.2
2018-09-05T09:28:17.615Z,4.9
2018-09-05T09:30:17.526Z,5.1
2018-09-05T09:32:18.258Z,4.2
2018-09-05T09:34:17.981Z,5.2
2018-09-05T09:36:17.584Z,4.8
2018-09-05T09:38:18.300Z,4.6
2018-09-05T09:40:18.454Z,5.1
2018-09-05T09:42:18.199Z,5.9
2018-09-05T09:44:17.916Z,5.2
2018-09-05T09:46:17.930Z,4.9
2018-09-05T09:48:17.664Z,4
2018-09-05T09:50:18.403Z,4.4
2018-09-05T09:52:18.105Z,4.2
2018-09-05T09:54:17.847Z,4.2
2018-09-05T09:56:18.193Z,4.5
2018-09-05T09:58:17.934Z,3.8
2018-09-05T10:00:17.718Z,3
2018-09-05T10:02:18.439Z,3
2018-09-05T10:04:18.178Z,3.5
2018-09-05T10:06:17.560Z,3.3
2018-09-05T10:08:18.275Z,2.7
2018-09-05T10:10:18.696Z,3.7
2018-09-05T10:12:18.131Z,3.2
2018-09-05T10:14:17.878Z,3.4
2018-09-05T10:16:17.773Z,3.4
2018-09-05T10:18:17.550Z,3.3
2018-09-05T10:20:18.298Z,3.6
2018-09-05T10:22:18.026Z,3.4
2018-09-05T10:24:17.736Z,2.8
2018-09-05T10:26:18.164Z,3.4
2018-09-05T10:28:17.875Z,3.4
2018-09-05T10:30:17.652Z,3.2
2018-09-05T10:32:18.391Z,3.1
2018-09-05T10:34:18.107Z,3.3
2018-09-05T10:36:18.059Z,3.5
2018-09-05T10:38:17.784Z,3.4
2018-09-05T10:40:17.932Z,4.1
2018-09-05T10:42:17.660Z,3.3
2018-09-05T10:44:18.433Z,3
2018-09-05T10:46:17.889Z,3.3
2018-09-05T10:48:17.633Z,3.1
2018-09-05T10:50:18.409Z,2.7
2018-09-05T10:52:18.159Z,3.2
2018-09-05T10:54:17.883Z,2.8
2018-09-05T10:56:17.862Z,3.2
2018-09-05T10:58:17.743Z,3.7
2018-09-05T11:00:18.508Z,2.7
2018-09-05T11:02:18.219Z,3.8
2018-09-05T11:04:18.027Z,3.1
2018-09-05T11:06:17.559Z,3.4
2018-09-05T11:08:18.290Z,2.7
2018-09-05T11:10:18.480Z,2.6
2018-09-05T11:12:18.324Z,3.2
2018-09-05T11:14:18.079Z,2.5
2018-09-05T11:16:17.974Z,3.3
2018-09-05T11:18:17.758Z,2.3
2018-09-05T11:20:18.469Z,2.8
2018-09-05T11:22:18.152Z,3.3
2018-09-05T11:24:17.847Z,2.9
2018-09-05T11:26:18.124Z,2.8
2018-09-05T11:28:17.816Z,3.5
2018-09-05T11:30:17.571Z,2.6
2018-09-05T11:32:18.254Z,2.7
2018-09-05T11:34:17.941Z,2.2
2018-09-05T11:36:17.771Z,2.3
2018-09-05T11:38:17.465Z,3.3
2018-09-05T11:40:17.577Z,2.7
2018-09-05T11:42:18.298Z,2.5
2018-09-05T11:44:17.997Z,3
2018-09-05T11:46:17.777Z,2.9
2018-09-05T11:48:17.485Z,3.6
2018-09-05T11:50:18.221Z,2.7
2018-09-05T11:52:17.981Z,2.6
2018-09-05T11:54:17.695Z,3
2018-09-05T11:56:17.940Z,2.2
2018-09-05T11:58:17.663Z,3
2018-09-05T12:00:18.382Z,2.4
2018-09-05T12:02:18.101Z,2.8
2018-09-05T12:04:17.981Z,2.1
2018-09-05T12:06:17.552Z,2.8
2018-09-05T12:08:18.236Z,2
2018-09-05T12:10:18.354Z,2.3
2018-09-05T12:12:18.128Z,2.5
2018-09-05T12:14:18.034Z,2.5
2018-09-05T12:16:18.327Z,2.7
2018-09-05T12:18:18.076Z,2.8
2018-09-05T12:20:17.787Z,2.5
2018-09-05T12:22:17.511Z,2.9
2018-09-05T12:24:18.198Z,2.9
2018-09-05T12:26:17.516Z,2.6
2018-09-05T12:28:18.215Z,2.2
2018-09-05T12:30:17.923Z,3.2
2018-09-05T12:32:17.636Z,2.6
2018-09-05T12:34:18.318Z,2.7
2018-09-05T12:36:17.616Z,2.1
2018-09-05T12:38:18.376Z,2.7
2018-09-05T12:40:17.633Z,2.3
2018-09-05T12:42:18.361Z,2.1
2018-09-05T12:44:18.063Z,1.8
2018-09-05T12:46:17.860Z,1.7
2018-09-05T12:48:17.591Z,2
2018-09-05T12:50:18.316Z,2.3
2018-09-05T12:52:18.015Z,1.7
2018-09-05T12:54:17.748Z,2.5
2018-09-05T12:56:18.033Z,2.3
2018-09-05T12:58:17.732Z,1.9
2018-09-05T13:00:18.458Z,2.3
2018-09-05T13:02:18.165Z,2.7
2018-09-05T13:04:17.868Z,2.2
2018-09-05T13:06:17.910Z,1.5
2018-09-05T13:08:17.613Z,1.9
2018-09-05T13:10:17.791Z,2.3
2018-09-05T13:12:17.480Z,1.7
2018-09-05T13:14:18.167Z,2.2
2018-09-05T13:16:18.453Z,2.1
2018-09-05T13:18:18.206Z,2
2018-09-05T13:20:17.947Z,2.2
2018-09-05T13:22:17.670Z,2.2
2018-09-05T13:24:18.381Z,2.2
2018-09-05T13:26:17.717Z,2
2018-09-05T13:28:18.449Z,2.3
2018-09-05T13:30:18.166Z,2
2018-09-05T13:32:17.870Z,2.2
2018-09-05T13:34:17.587Z,1.9
2018-09-05T13:36:17.838Z,2.5
2018-09-05T13:38:17.529Z,1.9
2018-09-05T13:40:17.651Z,2.3
2018-09-05T13:42:18.350Z,2.1
2018-09-05T13:44:18.084Z,2.1
2018-09-05T13:46:18.024Z,2.5
2018-09-05T13:48:17.721Z,2.1
2018-09-05T13:50:18.447Z,2.4
2018-09-05T13:52:18.139Z,2.4
2018-09-05T13:54:17.831Z,2.3
2018-09-05T13:56:17.757Z,2.5
2018-09-05T13:58:17.549Z,1.8
2018-09-05T14:00:18.309Z,2.3
2018-09-05T14:02:17.996Z,2.2
2018-09-05T14:04:17.689Z,2.4
2018-09-05T14:06:18.022Z,2.2
2018-09-05T14:08:17.721Z,2.3
2018-09-05T14:10:17.831Z,2.1
2018-09-05T14:12:17.559Z,2.8
2018-09-05T14:14:18.257Z,2.1
2018-09-05T14:16:17.533Z,1.8
2018-09-05T14:18:18.282Z,2.6
2018-09-05T14:20:18.019Z,1.7
2018-09-05T14:22:17.756Z,1.9
2018-09-05T14:24:18.471Z,2.1
2018-09-05T14:26:17.758Z,1.5
2018-09-05T14:28:17.556Z,2
2018-09-05T14:30:18.311Z,1.7
2018-09-05T14:32:18.026Z,1.9
2018-09-05T14:34:17.767Z,1.8
2018-09-05T14:36:18.054Z,1.7
2018-09-05T14:38:17.809Z,2
2018-09-05T14:40:17.941Z,1.9
2018-09-05T14:42:17.665Z,2.6
2018-09-05T14:44:18.431Z,1.6
2018-09-05T14:46:17.709Z,1.7
2018-09-05T14:48:18.492Z,1.7
2018-09-05T14:50:18.432Z,2.2
2018-09-05T14:52:18.154Z,1.5
2018-09-05T14:54:17.913Z,1.5
2018-09-05T14:56:18.295Z,2.2
2018-09-05T14:58:18.016Z,2.3
2018-09-05T15:00:17.769Z,2.3
2018-09-05T15:02:18.503Z,1.8
2018-09-05T15:04:18.218Z,1.8
2018-09-05T15:06:18.051Z,2.1
2018-09-05T15:08:17.807Z,2.5
2018-09-05T15:10:17.936Z,2
2018-09-05T15:12:17.654Z,1.6
2018-09-05T15:14:18.385Z,1.8
2018-09-05T15:16:17.702Z,1.6
2018-09-05T15:18:18.472Z,1.9
2018-09-05T15:20:18.204Z,1.5
2018-09-05T15:22:17.898Z,2.3
2018-09-05T15:24:17.597Z,1.6
2018-09-05T15:26:17.901Z,1.5
2018-09-05T15:28:17.616Z,2.1
2018-09-05T15:30:18.353Z,2.5
2018-09-05T15:32:18.121Z,2.8
2018-09-05T15:34:17.872Z,2.6
2018-09-05T15:36:18.182Z,1.9
2018-09-05T15:38:17.887Z,2.2
2018-09-05T15:40:17.994Z,2
2018-09-05T15:42:17.723Z,1.7
2018-09-05T15:44:18.425Z,2
2018-09-05T15:46:17.757Z,2.9
2018-09-05T15:48:18.499Z,1.7
2018-09-05T15:50:18.235Z,2
2018-09-05T15:52:17.952Z,2
2018-09-05T15:54:17.652Z,2.1
2018-09-05T15:56:17.896Z,1.5
2018-09-05T15:58:17.619Z,2.3
2018-09-05T16:00:18.341Z,1.8
2018-09-05T16:02:18.045Z,2.1
2018-09-05T16:04:17.785Z,2.5
2018-09-05T16:06:18.064Z,2.6
2018-09-05T16:08:17.759Z,1.7
2018-09-05T16:10:17.885Z,1.5
2018-09-05T16:12:17.656Z,2.2
2018-09-05T16:14:18.365Z,1.8
2018-09-05T16:16:17.752Z,2.2
2018-09-05T16:18:17.519Z,2.1
2018-09-05T16:20:18.249Z,2.1
2018-09-05T16:22:18.055Z,1.8
2018-09-05T16:24:17.884Z,2.2
2018-09-05T16:26:18.436Z,2.3
2018-09-05T16:28:18.265Z,2.2
2018-09-05T16:30:18.121Z,2.5
2018-09-05T16:32:17.960Z,1.9
2018-09-05T16:34:17.745Z,2.4
2018-09-05T16:36:18.309Z,2.3
2018-09-05T16:38:18.273Z,2.2
2018-09-05T16:40:18.493Z,2
2018-09-05T16:42:18.329Z,2.2
2018-09-05T16:44:18.153Z,2.2
2018-09-05T16:46:17.699Z,1.9
2018-09-05T16:48:17.632Z,2.4
2018-09-05T16:50:18.472Z,2
2018-09-05T16:52:18.299Z,2
2018-09-05T16:54:18.152Z,2.2
2018-09-05T16:56:17.692Z,2.2
2018-09-05T16:58:18.481Z,2.6
2018-09-05T17:00:18.305Z,2.2
2018-09-05T17:02:18.119Z,2
2018-09-05T17:04:17.973Z,1.4
2018-09-05T17:06:18.029Z,1.7
2018-09-05T17:08:17.824Z,2
2018-09-05T17:10:18.103Z,2.2
2018-09-05T17:12:17.910Z,2.5
2018-09-05T17:14:17.719Z,2.2
2018-09-05T17:16:18.235Z,2
2018-09-05T17:18:18.135Z,2.3
2018-09-05T17:20:17.982Z,2
2018-09-05T17:22:17.755Z,2.3
2018-09-05T17:24:17.563Z,2.1
2018-09-05T17:26:18.090Z,2.5
2018-09-05T17:28:17.926Z,1.7
2018-09-05T17:30:17.816Z,2.3
2018-09-05T17:32:17.639Z,1.8
2018-09-05T17:34:18.436Z,2.3
2018-09-05T17:36:17.980Z,2.4
2018-09-05T17:38:17.781Z,2.4
2018-09-05T17:40:18.056Z,2.5
2018-09-05T17:42:17.892Z,3.2
2018-09-05T17:44:17.711Z,2.3
2018-09-05T17:46:18.127Z,2.5
2018-09-05T17:48:17.943Z,2.1
2018-09-05T17:50:17.772Z,2
2018-09-05T17:52:17.618Z,2.4
2018-09-05T17:54:18.391Z,1.9
2018-09-05T17:56:17.892Z,1.9
2018-09-05T17:58:17.688Z,2.2
2018-09-05T18:00:18.482Z,1.8
2018-09-05T18:02:18.249Z,2.5
2018-09-05T18:04:18.059Z,2
2018-09-05T18:06:18.518Z,2.5
2018-09-05T18:08:18.337Z,2.4
2018-09-05T18:10:17.746Z,2.3
2018-09-05T18:12:18.567Z,2.5
2018-09-05T18:14:18.379Z,2.6
2018-09-05T18:16:18.004Z,2.6
2018-09-05T18:18:17.885Z,2.2
2018-09-05T18:20:17.728Z,2.3
2018-09-05T18:22:18.526Z,2
2018-09-05T18:24:18.367Z,1.5
2018-09-05T18:26:17.856Z,1.9
2018-09-05T18:28:17.674Z,2.4
2018-09-05T18:30:18.428Z,2.1
2018-09-05T18:32:18.212Z,2.5
2018-09-05T18:34:18.094Z,2
2018-09-05T18:36:17.559Z,2.4
2018-09-05T18:38:18.532Z,2.5
2018-09-05T18:40:18.081Z,2.5
2018-09-05T18:42:17.894Z,3.3
2018-09-05T18:44:17.752Z,2.4
2018-09-05T18:46:18.207Z,1.6
2018-09-05T18:48:17.987Z,2.6
2018-09-05T18:50:17.825Z,2.3
2018-09-05T18:52:17.649Z,2.4
2018-09-05T18:54:18.481Z,2
2018-09-05T18:56:18.204Z,2.1
2018-09-05T18:58:18.007Z,2.2
2018-09-05T19:00:17.858Z,2.1
2018-09-05T19:02:17.667Z,2.3
2018-09-05T19:04:18.450Z,2.4
2018-09-05T19:06:17.928Z,2.3
2018-09-05T19:08:18.781Z,2
2018-09-05T19:10:19.101Z,2.2
2018-09-05T19:12:17.924Z,2.4
2018-09-05T19:14:17.832Z,2.5
2018-09-05T19:16:18.419Z,2.6
2018-09-05T19:18:18.311Z,2.5
2018-09-05T19:20:18.266Z,2.6
2018-09-05T19:22:18.075Z,2.5
2018-09-05T19:24:18.878Z,1.5
2018-09-05T19:26:19.356Z,2.2
2018-09-05T19:28:19.137Z,2.3
2018-09-05T19:30:18.940Z,2.3
2018-09-05T19:32:18.776Z,2.3
2018-09-05T19:34:17.594Z,2.2
2018-09-05T19:36:19.126Z,2.2
2018-09-05T19:38:18.905Z,2.3
2018-09-05T19:40:19.106Z,2.4
2018-09-05T19:42:18.982Z,2.5
2018-09-05T19:44:18.916Z,2.2
2018-09-05T19:46:19.370Z,3
2018-09-05T19:48:19.207Z,2.5
2018-09-05T19:50:19.114Z,2.1
2018-09-05T19:52:19.051Z,2.8
2018-09-05T19:54:18.892Z,2.4
2018-09-05T19:56:18.406Z,2.6
2018-09-05T19:58:19.179Z,2.7
2018-09-05T20:00:18.977Z,2.7
2018-09-05T20:02:18.773Z,2.7
2018-09-05T20:04:17.577Z,2.4
2018-09-05T20:06:19.140Z,2.7
2018-09-05T20:08:18.934Z,2.2
2018-09-05T20:10:19.144Z,2.7
2018-09-05T20:12:18.932Z,2.9
2018-09-05T20:14:18.744Z,2.8
2018-09-05T20:16:19.342Z,3.4
2018-09-05T20:18:19.221Z,2.1
2018-09-05T20:20:19.059Z,2.9
2018-09-05T20:22:18.903Z,2.5
2018-09-05T20:24:18.656Z,2.7
2018-09-05T20:26:19.159Z,2.6
2018-09-05T20:28:18.980Z,1.8
2018-09-05T20:30:18.857Z,2.6
2018-09-05T20:32:18.658Z,1.7
2018-09-05T20:34:19.457Z,2.4
2018-09-05T20:36:18.920Z,2.4
2018-09-05T20:38:18.723Z,2.3
2018-09-05T20:40:19.042Z,2.4
2018-09-05T20:42:18.851Z,2.6
2018-09-05T20:44:18.659Z,2.7
2018-09-05T20:46:19.254Z,2.7
2018-09-05T20:48:19.075Z,2.4
2018-09-05T20:50:18.894Z,2.3
2018-09-05T20:52:18.798Z,2.6
2018-09-05T20:54:18.827Z,2.8
2018-09-05T20:56:19.392Z,2.5
2018-09-05T20:58:19.203Z,2.5
2018-09-05T21:00:19.001Z,2.1
2018-09-05T21:02:18.836Z,2.9
2018-09-05T21:04:18.645Z,2.4
2018-09-05T21:06:19.297Z,3
2018-09-05T21:08:19.096Z,2.6
2018-09-05T21:10:19.423Z,2
2018-09-05T21:12:19.236Z,2.5
2018-09-05T21:14:19.035Z,2.3
2018-09-05T21:16:18.576Z,2.7
2018-09-05T21:18:19.524Z,1.9
2018-09-05T21:20:19.397Z,2.6
2018-09-05T21:22:19.245Z,2.2
2018-09-05T21:24:19.003Z,2
2018-09-05T21:26:18.946Z,1.7
2018-09-05T21:28:18.769Z,2.7
2018-09-05T21:30:18.587Z,2.4
2018-09-05T21:32:19.383Z,2.1
2018-09-05T21:34:19.186Z,2.1
2018-09-05T21:36:18.749Z,2.3
2018-09-05T21:38:18.697Z,2.8
2018-09-05T21:40:18.928Z,2.2
2018-09-05T21:42:18.743Z,2.1
2018-09-05T21:44:18.504Z,2.5
2018-09-05T21:46:19.180Z,1.9
2018-09-05T21:48:19.033Z,2.2
2018-09-05T21:50:18.117Z,2.6
2018-09-05T21:52:18.934Z,2.7
2018-09-05T21:54:18.708Z,2.6
2018-09-05T21:56:19.196Z,2.2
2018-09-05T21:58:18.988Z,2.3
2018-09-05T22:00:18.823Z,2.6
2018-09-05T22:02:18.652Z,2.8
2018-09-05T22:04:19.421Z,2.9
2018-09-05T22:06:18.899Z,2.8
2018-09-05T22:08:18.729Z,3
2018-09-05T22:10:18.967Z,2.4
2018-09-05T22:12:18.764Z,2.1
2018-09-05T22:14:18.536Z,2.2
2018-09-05T22:16:19.020Z,2.1
2018-09-05T22:18:18.889Z,1.8
2018-09-05T22:20:18.748Z,2.9
2018-09-05T22:22:19.491Z,2.2
2018-09-05T22:24:18.282Z,2.6
2018-09-05T22:26:18.796Z,2.5
2018-09-05T22:28:18.591Z,3.2
2018-09-05T22:30:19.368Z,2.6
2018-09-05T22:32:19.216Z,2.5
2018-09-05T22:34:19.230Z,2.3
2018-09-05T22:36:18.833Z,2.5
2018-09-05T22:38:18.633Z,1.9
2018-09-05T22:40:18.873Z,2.3
2018-09-05T22:42:18.639Z,3.1
2018-09-05T22:44:19.433Z,2.4
2018-09-05T22:46:18.947Z,2.9
2018-09-05T22:48:18.769Z,2.9
2018-09-05T22:50:18.555Z,3
2018-09-05T22:52:19.404Z,2.5
2018-09-05T22:54:19.206Z,2.5
2018-09-05T22:56:18.706Z,3
2018-09-05T22:58:19.487Z,2.6
2018-09-05T23:00:19.308Z,2.4
2018-09-05T23:02:19.111Z,2.7
2018-09-05T23:04:18.946Z,3.3
2018-09-05T23:06:19.386Z,3
2018-09-05T23:08:19.203Z,2.1
2018-09-05T23:10:19.494Z,3.1
2018-09-05T23:12:19.283Z,2.8
2018-09-05T23:14:19.076Z,3.6
2018-09-05T23:16:18.630Z,2.1
2018-09-05T23:18:19.455Z,3.6
2018-09-05T23:20:19.274Z,3.2
2018-09-05T23:22:19.079Z,2.8
2018-09-05T23:24:18.913Z,3.5
2018-09-05T23:26:18.891Z,2.2
2018-09-05T23:28:18.701Z,3.4
2018-09-05T23:30:18.517Z,3.3
2018-09-05T23:32:19.255Z,2.6
2018-09-05T23:34:19.071Z,2.7
2018-09-05T23:36:18.539Z,2.7
2018-09-05T23:38:19.342Z,3.1
2018-09-05T23:40:18.652Z,2.9
2018-09-05T23:42:19.418Z,3
2018-09-05T23:44:19.190Z,2.7
2018-09-05T23:46:18.675Z,3
2018-09-05T23:48:19.478Z,3
2018-09-05T23:50:19.260Z,3.1
2018-09-05T23:52:19.043Z,3.2
2018-09-05T23:54:18.846Z,2.9
2018-09-05T23:56:19.408Z,2.8
2018-09-05T23:58:19.188Z,3.2
